Alkin Kalkavan — TCOL6 — position and weather

sailwx.info

Track history (hours):
 
Tides and Currents Weather Stations Pressure Air Temp Water Temp Dewpoint Dewpoint Depression Visibility Wind Speed Wind Dir Waves Ship Positions

Alkin Kalkavan

Last reported at 2015-Apr-21 05:33 UTC. Time now 2015-Apr-26 08:18 UTC.
Position N 32°58' E 034°24'.

Length 148 m; draft 6.2 m.

Type: Cargo ship. MMSI: 271000905.

Date/timePositionNaut miles runAvg speedWind from/ knotsBaromVisibWave heightAir tempDewpointWater temp
2015-Apr-21 05:33N 32°58' E 034°24'1615.4
2015-Apr-21 04:33N 32°56' E 034°43'17 4.2
2015-Apr-21 00:32N 32°49' E 035°01'4 0.5
2015-Apr-20 15:24N 32°52' E 034°57'1112.6
2015-Apr-20 14:33N 32°45' E 034°48'1615.8
2015-Apr-20 13:33N 32°30' E 034°43'1615.9
2015-Apr-20 12:33N 32°14' E 034°38'1615.9
2015-Apr-20 11:33N 31°59' E 034°32'1110.4
2015-Apr-20 10:33N 31°50' E 034°39'0 0.4
2015-Apr-20 09:29N 31°50' E 034°39'0 0.0
2015-Apr-20 08:28N 31°50' E 034°39'0 0.0
2015-Apr-20 02:28N 31°50' E 034°39'0 0.0
2015-Apr-20 01:31N 31°50' E 034°39'0 0.0
2015-Apr-19 23:09N 31°50' E 034°39'0 0.0
2015-Apr-19 20:25N 31°50' E 034°39'0 0.0
2015-Apr-19 19:13N 31°50' E 034°39'0 0.0
2015-Apr-19 18:28N 31°50' E 034°39'0 0.0
2015-Apr-19 15:11N 31°50' E 034°39'0 0.0
2015-Apr-19 14:32N 31°50' E 034°39'0 0.0
2015-Apr-19 13:29N 31°50' E 034°39'2 2.3
2015-Apr-19 12:33N 31°52' E 034°38'3 2.8
2015-Apr-19 11:31N 31°52' E 034°34'1615.3
2015-Apr-19 10:27N 31°59' E 034°17'1515.1
2015-Apr-19 09:29N 32°14' E 034°14'3115.4
2015-Apr-19 07:29N 32°44' E 034°18'  
2015-Apr-11 07:08N 40°58' E 028°41'2 4.1
2015-Apr-11 06:33N 40°56' E 028°41'  
Track history (hours):
 
Tides and Currents Weather Stations Pressure Air Temp Water Temp Dewpoint Dewpoint Depression Visibility Wind Speed Wind Dir Waves Ship Positions

Alkin Kalkavan

Last reported at 2015-Apr-21 05:33 UTC. Time now 2015-Apr-26 08:18 UTC.
Position N 32°58' E 034°24'.

Length 148 m; draft 6.2 m.

Type: Cargo ship. MMSI: 271000905.

Date/timePositionNaut miles runAvg speedWind from/ knotsBaromVisibWave heightAir tempDewpointWater temp
2015-Apr-21 05:33N 32°58' E 034°24'1615.4
2015-Apr-21 04:33N 32°56' E 034°43'17 4.2
2015-Apr-21 00:32N 32°49' E 035°01'4 0.5
2015-Apr-20 15:24N 32°52' E 034°57'1112.6
2015-Apr-20 14:33N 32°45' E 034°48'1615.8
2015-Apr-20 13:33N 32°30' E 034°43'1615.9
2015-Apr-20 12:33N 32°14' E 034°38'1615.9
2015-Apr-20 11:33N 31°59' E 034°32'1110.4
2015-Apr-20 10:33N 31°50' E 034°39'0 0.4
2015-Apr-20 09:29N 31°50' E 034°39'0 0.0
2015-Apr-20 08:28N 31°50' E 034°39'0 0.0
2015-Apr-20 02:28N 31°50' E 034°39'0 0.0
2015-Apr-20 01:31N 31°50' E 034°39'0 0.0
2015-Apr-19 23:09N 31°50' E 034°39'0 0.0
2015-Apr-19 20:25N 31°50' E 034°39'0 0.0
2015-Apr-19 19:13N 31°50' E 034°39'0 0.0
2015-Apr-19 18:28N 31°50' E 034°39'0 0.0
2015-Apr-19 15:11N 31°50' E 034°39'0 0.0
2015-Apr-19 14:32N 31°50' E 034°39'0 0.0
2015-Apr-19 13:29N 31°50' E 034°39'2 2.3
2015-Apr-19 12:33N 31°52' E 034°38'3 2.8
2015-Apr-19 11:31N 31°52' E 034°34'1615.3
2015-Apr-19 10:27N 31°59' E 034°17'1515.1
2015-Apr-19 09:29N 32°14' E 034°14'3115.4
2015-Apr-19 07:29N 32°44' E 034°18'  
2015-Apr-11 07:08N 40°58' E 028°41'2 4.1
2015-Apr-11 06:33N 40°56' E 028°41'  

Dump ship's entire track history